Time;durP1;ratioP1;P1;durP2;ratioP2;P2;SDS_P1;SDS_P2;PMS_P1;PMS_P2;Temp;Humidity;BMP_temperature;BMP_pressure;BME280_temperature;BME280_humidity;BME280_pressure;Samples;Min_cycle;Max_cycle;Signal;HPM_P1;HPM_P2
2022/10/23 00:01:16;;;;;;;8.70;4.30;;;9.10;99.90;;;;;;4942649;28;20126;-35
2022/10/23 00:03:43;;;;;;;7.25;3.55;;;9.00;99.90;;;;;;4939811;28;20518;-31
2022/10/23 00:06:09;;;;;;;9.93;4.00;;;9.10;99.90;;;;;;4943584;28;20023;-31
2022/10/23 00:08:35;;;;;;;6.93;4.07;;;9.00;99.90;;;;;;4941390;29;20086;-35
2022/10/23 00:11:04;;;;;;;6.20;3.88;;;9.00;99.90;;;;;;4941751;28;20126;-36
2022/10/23 00:13:30;;;;;;;8.38;3.58;;;8.90;99.90;;;;;;4938874;28;20038;-32
2022/10/23 00:15:55;;;;;;;5.68;3.78;;;9.00;99.90;;;;;;4940421;28;20039;-33
2022/10/23 00:18:21;;;;;;;3.58;3.25;;;9.00;99.90;;;;;;4942713;28;20035;-36
2022/10/23 00:20:46;;;;;;;3.42;3.13;;;9.00;99.90;;;;;;4938964;29;20027;-33
2022/10/23 00:23:12;;;;;;;4.57;3.20;;;8.90;99.90;;;;;;4954621;28;20560;-31
2022/10/23 00:25:37;;;;;;;3.97;3.03;;;8.80;99.90;;;;;;4938393;28;20039;-34
2022/10/23 00:28:03;;;;;;;4.03;2.70;;;8.60;99.90;;;;;;4942251;28;20031;-30
2022/10/23 00:30:29;;;;;;;3.28;2.83;;;8.60;99.90;;;;;;4940504;28;20716;-31
2022/10/23 00:32:54;;;;;;;3.17;2.63;;;8.70;99.90;;;;;;4939942;28;20020;-36
2022/10/23 00:35:20;;;;;;;3.28;2.97;;;8.80;99.90;;;;;;4939052;28;20110;-33
2022/10/23 00:37:45;;;;;;;3.55;3.00;;;8.80;99.90;;;;;;4941417;28;20042;-35
2022/10/23 00:40:11;;;;;;;3.85;3.45;;;8.70;99.90;;;;;;4940511;28;20055;-36
2022/10/23 00:42:37;;;;;;;6.88;3.55;;;8.70;99.90;;;;;;4937360;28;20034;-36
2022/10/23 00:45:32;;;;;;;19.98;4.70;;;8.60;99.90;;;;;;4939931;28;20039;-34
2022/10/23 00:47:59;;;;;;;7.03;3.83;;;8.50;99.90;;;;;;4940217;28;20055;-33
2022/10/23 00:50:27;;;;;;;7.35;3.78;;;8.50;99.90;;;;;;4941994;28;20039;-36
2022/10/23 00:52:55;;;;;;;12.00;4.80;;;8.60;99.90;;;;;;4941464;28;20031;-34
2022/10/23 00:55:23;;;;;;;5.80;4.45;;;8.60;99.90;;;;;;4939229;28;21678;-34
2022/10/23 00:57:50;;;;;;;6.78;4.35;;;8.60;99.90;;;;;;4941734;28;20031;-36
2022/10/23 01:00:28;;;;;;;7.65;4.50;;;8.70;99.90;;;;;;4941584;28;20023;-39
2022/10/23 01:02:55;;;;;;;7.32;3.80;;;8.70;99.90;;;;;;4938344;28;20051;-32
2022/10/23 01:05:29;;;;;;;5.07;3.33;;;8.70;99.90;;;;;;4940245;28;20492;-32
2022/10/23 01:08:01;;;;;;;4.32;3.15;;;8.70;99.90;;;;;;4943180;28;20031;-32
2022/10/23 01:10:38;;;;;;;3.38;3.08;;;8.60;99.90;;;;;;4941390;28;20043;-35
2022/10/23 01:13:27;;;;;;;3.17;2.83;;;8.60;99.90;;;;;;4941182;28;20024;-34
2022/10/23 01:16:04;;;;;;;3.67;2.83;;;8.60;99.90;;;;;;4931316;28;20190;-33
2022/10/23 01:18:44;;;;;;;3.85;3.10;;;8.50;99.90;;;;;;4942897;28;20020;-31
2022/10/23 01:21:13;;;;;;;3.70;3.22;;;8.50;99.90;;;;;;4942787;29;20126;-34
2022/10/23 01:24:05;;;;;;;4.53;3.15;;;8.40;99.90;;;;;;4939001;28;20034;-35
2022/10/23 01:27:01;;;;;;;3.40;3.10;;;8.40;99.90;;;;;;4938519;28;20035;-32
2022/10/23 01:29:39;;;;;;;31.77;9.43;;;8.40;99.90;;;;;;4938835;28;20472;-33
2022/10/23 01:32:25;;;;;;;51.47;10.20;;;8.30;99.90;;;;;;4937517;28;20039;-35
2022/10/23 01:35:01;;;;;;;4.93;3.08;;;8.20;99.90;;;;;;4940195;28;20501;-33
2022/10/23 01:37:35;;;;;;;4.22;3.60;;;8.20;99.90;;;;;;4941422;28;20408;-32
2022/10/23 01:40:08;;;;;;;5.97;4.20;;;8.10;99.90;;;;;;4939970;29;20046;-32
2022/10/23 01:42:40;;;;;;;6.22;4.68;;;8.10;99.90;;;;;;4941312;28;20626;-33
2022/10/23 01:45:15;;;;;;;5.65;3.53;;;8.10;99.90;;;;;;4941209;29;20035;-31
2022/10/23 01:47:42;;;;;;;4.68;3.53;;;8.20;99.90;;;;;;4941466;28;20142;-33
2022/10/23 01:50:10;;;;;;;4.17;3.47;;;8.20;99.90;;;;;;4940464;28;20031;-32
2022/10/23 01:52:36;;;;;;;8.57;3.85;;;8.20;99.90;;;;;;4935362;28;20046;-32
2022/10/23 01:55:02;;;;;;;3.85;3.10;;;8.10;99.90;;;;;;4940404;28;22100;-35
2022/10/23 01:57:31;;;;;;;4.20;2.63;;;8.10;99.90;;;;;;4939622;28;20031;-34
2022/10/23 02:00:03;;;;;;;3.38;2.92;;;8.10;99.90;;;;;;4938726;29;20035;-32
2022/10/23 02:02:31;;;;;;;4.15;2.97;;;8.10;99.90;;;;;;4940138;28;20038;-33
2022/10/23 02:05:06;;;;;;;3.63;2.95;;;8.10;99.90;;;;;;4936816;28;20035;-34
2022/10/23 02:07:33;;;;;;;2.95;2.67;;;8.10;99.90;;;;;;4941165;29;20024;-32
2022/10/23 02:09:59;;;;;;;3.28;2.88;;;7.90;99.90;;;;;;4940637;28;20110;-31
2022/10/23 02:12:46;;;;;;;3.20;2.28;;;8.00;99.90;;;;;;4940925;28;20035;-32
2022/10/23 02:15:20;;;;;;;3.00;2.80;;;7.90;99.90;;;;;;4936416;29;20034;-33
2022/10/23 02:17:45;;;;;;;3.20;2.90;;;7.80;99.90;;;;;;4940565;28;20038;-33
2022/10/23 02:20:40;;;;;;;3.38;3.08;;;7.90;99.90;;;;;;4941482;28;20039;-31
2022/10/23 02:23:32;;;;;;;3.53;3.22;;;7.90;99.90;;;;;;4940660;28;20043;-36
2022/10/23 02:26:09;;;;;;;2.80;2.60;;;7.90;99.90;;;;;;4935810;28;20083;-32
2022/10/23 02:28:48;;;;;;;3.30;3.00;;;7.90;99.90;;;;;;4937473;28;20364;-34
2022/10/23 02:31:17;;;;;;;3.65;2.83;;;7.90;99.90;;;;;;4936656;28;20039;-35
2022/10/23 02:33:45;;;;;;;3.42;3.13;;;7.70;99.90;;;;;;4938010;28;20039;-33
2022/10/23 02:36:11;;;;;;;4.00;3.03;;;7.60;99.90;;;;;;4939099;28;21343;-32
2022/10/23 02:38:42;;;;;;;3.80;3.30;;;7.70;99.90;;;;;;4942500;28;20031;-31
2022/10/23 02:41:28;;;;;;;4.75;3.28;;;7.60;99.90;;;;;;4942123;28;20038;-32
2022/10/23 02:44:12;;;;;;;7.03;3.45;;;7.70;99.90;;;;;;4940774;28;20282;-35
2022/10/23 02:47:18;;;;;;;10.30;3.63;;;7.60;99.90;;;;;;4943497;28;20440;-31
2022/10/23 02:49:59;;;;;;;5.25;3.20;;;7.10;99.90;;;;;;4923532;28;20044;-31
2022/10/23 02:52:33;;;;;;;4.18;3.00;;;6.90;99.90;;;;;;4944488;28;20035;-33
2022/10/23 02:55:04;;;;;;;3.10;2.90;;;6.80;99.90;;;;;;4939570;28;20093;-34
2022/10/23 02:57:55;;;;;;;3.47;3.17;;;6.90;99.90;;;;;;4940586;29;20042;-34
2022/10/23 03:00:22;;;;;;;4.28;3.13;;;7.10;99.90;;;;;;4943380;28;20086;-34
2022/10/23 03:02:56;;;;;;;3.88;2.97;;;7.10;99.90;;;;;;4942500;28;20035;-31
2022/10/23 03:05:27;;;;;;;4.07;3.20;;;7.00;99.90;;;;;;4941673;28;20091;-32
2022/10/23 03:07:53;;;;;;;3.67;2.80;;;7.00;99.90;;;;;;4942357;28;20046;-35
2022/10/23 03:10:19;;;;;;;3.20;2.90;;;7.10;99.90;;;;;;4944717;28;20032;-32
2022/10/23 03:12:45;;;;;;;3.70;2.80;;;7.20;99.90;;;;;;4940981;28;20043;-34
2022/10/23 03:15:11;;;;;;;2.92;2.63;;;7.20;99.90;;;;;;4940989;28;20031;-31
2022/10/23 03:17:37;;;;;;;2.65;2.40;;;7.20;99.90;;;;;;4941545;28;20050;-32
2022/10/23 03:20:04;;;;;;;4.15;2.80;;;7.10;99.90;;;;;;4941582;28;20062;-36
2022/10/23 03:22:30;;;;;;;2.67;2.45;;;7.20;99.90;;;;;;4945582;28;20074;-35
2022/10/23 03:24:55;;;;;;;2.20;2.10;;;7.20;99.90;;;;;;4939124;28;20551;-34
2022/10/23 03:27:21;;;;;;;2.80;2.53;;;7.20;99.90;;;;;;4942902;28;20588;-32
2022/10/23 03:29:47;;;;;;;5.75;2.88;;;7.20;99.90;;;;;;4941610;28;20039;-32
2022/10/23 03:32:12;;;;;;;4.30;3.33;;;7.20;99.90;;;;;;4940721;28;20067;-31
2022/10/23 03:34:38;;;;;;;2.95;2.75;;;7.20;99.90;;;;;;4939846;28;20795;-31
2022/10/23 03:37:04;;;;;;;2.90;2.70;;;7.10;99.90;;;;;;4957259;28;20031;-35
2022/10/23 03:39:29;;;;;;;3.15;2.83;;;7.20;99.90;;;;;;4941899;28;20102;-32
2022/10/23 03:41:55;;;;;;;3.72;3.22;;;7.20;99.90;;;;;;4942377;29;20038;-33
2022/10/23 03:44:21;;;;;;;5.60;3.13;;;7.20;99.90;;;;;;4940269;28;20027;-34
2022/10/23 03:46:46;;;;;;;2.67;2.47;;;7.20;99.90;;;;;;4939491;28;20055;-32
2022/10/23 03:49:12;;;;;;;2.50;2.33;;;7.10;99.90;;;;;;4939601;28;20047;-34
2022/10/23 03:51:40;;;;;;;3.70;2.83;;;7.10;99.90;;;;;;4944925;28;20039;-36
2022/10/23 03:54:09;;;;;;;2.53;2.33;;;7.10;99.90;;;;;;4940247;28;20054;-34
2022/10/23 03:56:35;;;;;;;3.35;2.50;;;7.10;99.90;;;;;;4938290;28;20028;-36
2022/10/23 03:59:00;;;;;;;2.65;2.42;;;7.00;99.90;;;;;;4941124;28;20495;-32
2022/10/23 04:01:26;;;;;;;4.32;2.55;;;7.00;99.90;;;;;;4942145;28;20102;-33
2022/10/23 04:03:52;;;;;;;2.47;2.33;;;7.00;99.90;;;;;;4940837;29;20031;-32
2022/10/23 04:06:18;;;;;;;5.25;2.55;;;7.10;99.90;;;;;;4938063;28;20058;-32
2022/10/23 04:08:44;;;;;;;11.82;3.78;;;7.00;99.90;;;;;;4941627;29;20027;-35
2022/10/23 04:11:10;;;;;;;13.80;3.80;;;6.90;99.90;;;;;;4943988;28;20058;-35
2022/10/23 04:13:36;;;;;;;4.65;2.90;;;6.80;99.90;;;;;;4941235;28;20065;-34
2022/10/23 04:16:01;;;;;;;3.50;3.20;;;6.90;99.90;;;;;;4939811;28;20047;-37
2022/10/23 04:18:27;;;;;;;7.35;3.25;;;6.90;99.90;;;;;;4940962;28;20030;-35
2022/10/23 04:20:53;;;;;;;5.65;2.78;;;6.90;99.90;;;;;;4941283;28;20039;-32
2022/10/23 04:23:19;;;;;;;8.18;3.17;;;6.90;99.90;;;;;;4942884;28;20118;-31
2022/10/23 04:25:44;;;;;;;5.32;3.67;;;6.90;99.90;;;;;;4939557;28;20046;-32
2022/10/23 04:28:10;;;;;;;6.53;5.25;;;7.00;99.90;;;;;;4944264;28;20051;-31
2022/10/23 04:30:36;;;;;;;6.43;4.70;;;7.00;99.90;;;;;;4943042;28;20058;-31
2022/10/23 04:33:01;;;;;;;18.73;9.77;;;7.00;99.90;;;;;;4946352;28;20027;-35
2022/10/23 04:35:27;;;;;;;6.50;5.15;;;6.90;99.90;;;;;;4945972;28;22051;-31
2022/10/23 04:37:52;;;;;;;7.82;4.93;;;6.70;99.90;;;;;;4945660;29;20042;-31
2022/10/23 04:40:18;;;;;;;7.10;5.18;;;6.80;99.90;;;;;;4945489;28;20492;-33
2022/10/23 04:42:44;;;;;;;9.35;6.78;;;6.80;99.90;;;;;;4945999;28;20077;-31
2022/10/23 04:45:09;;;;;;;12.27;8.77;;;6.90;99.90;;;;;;4937557;28;20181;-31
2022/10/23 04:47:35;;;;;;;12.27;9.95;;;6.90;99.90;;;;;;4940893;28;20142;-33
2022/10/23 04:50:01;;;;;;;13.27;10.88;;;7.00;99.90;;;;;;4942415;29;20038;-31
2022/10/23 04:52:26;;;;;;;11.05;8.55;;;7.00;99.90;;;;;;4941220;28;20561;-34
2022/10/23 04:54:52;;;;;;;8.85;6.13;;;7.00;99.90;;;;;;4938845;29;20031;-32
2022/10/23 04:57:17;;;;;;;7.60;4.82;;;7.00;99.90;;;;;;4939562;28;20031;-33
2022/10/23 04:59:43;;;;;;;3.53;3.15;;;7.00;99.90;;;;;;4941327;28;20049;-31
2022/10/23 05:02:08;;;;;;;2.90;2.70;;;7.00;99.90;;;;;;4940306;28;20063;-38
2022/10/23 05:04:34;;;;;;;6.10;2.90;;;7.00;99.90;;;;;;4940993;29;20090;-32
2022/10/23 05:07:00;;;;;;;3.08;2.88;;;7.00;99.90;;;;;;4939888;28;20106;-31
2022/10/23 05:09:25;;;;;;;4.25;3.25;;;7.00;99.90;;;;;;4940488;28;20086;-36
2022/10/23 05:11:51;;;;;;;3.30;3.00;;;7.00;99.90;;;;;;4941067;28;20515;-36
2022/10/23 05:14:16;;;;;;;3.30;3.00;;;7.00;99.90;;;;;;4937825;28;20031;-34
2022/10/23 05:16:49;;;;;;;2.78;2.53;;;7.00;99.90;;;;;;4939186;28;20061;-31
2022/10/23 05:19:20;;;;;;;4.60;3.42;;;7.00;99.90;;;;;;4940270;28;20035;-35
2022/10/23 05:21:48;;;;;;;5.57;3.58;;;7.00;99.90;;;;;;4939732;28;20249;-33
2022/10/23 05:24:13;;;;;;;8.15;4.50;;;7.00;99.90;;;;;;4940485;28;20027;-36
2022/10/23 05:26:39;;;;;;;10.48;5.20;;;7.00;99.90;;;;;;4939780;28;20091;-31
2022/10/23 05:29:05;;;;;;;11.80;6.10;;;7.00;99.90;;;;;;4938835;28;20069;-31
2022/10/23 05:31:32;;;;;;;17.58;7.75;;;7.00;99.90;;;;;;4940323;28;20043;-32
2022/10/23 05:33:59;;;;;;;23.47;9.87;;;7.00;99.90;;;;;;4941772;28;20031;-33
2022/10/23 05:36:26;;;;;;;39.13;16.90;;;7.00;99.90;;;;;;4941359;28;20488;-32
2022/10/23 05:38:52;;;;;;;54.85;22.60;;;7.00;99.90;;;;;;4944399;28;20035;-32
2022/10/23 05:41:18;;;;;;;49.13;21.60;;;7.00;99.90;;;;;;4947362;28;20039;-31
2022/10/23 05:43:45;;;;;;;55.63;23.98;;;6.80;99.90;;;;;;4945101;28;20880;-33
2022/10/23 05:46:10;;;;;;;45.47;20.50;;;6.90;99.90;;;;;;4938326;28;20039;-32
2022/10/23 05:48:36;;;;;;;28.30;12.35;;;6.90;99.90;;;;;;4938472;28;20512;-34
2022/10/23 05:51:06;;;;;;;14.15;8.13;;;6.70;99.90;;;;;;4941032;28;20047;-34
2022/10/23 05:53:32;;;;;;;8.98;4.80;;;6.70;99.90;;;;;;4940626;28;21559;-31
2022/10/23 05:56:08;;;;;;;3.63;3.08;;;6.70;99.90;;;;;;4939706;28;20023;-31
2022/10/23 05:58:34;;;;;;;2.63;2.42;;;6.70;99.90;;;;;;4939966;28;20032;-31
2022/10/23 06:01:04;;;;;;;3.80;2.33;;;6.60;99.90;;;;;;4941790;28;20488;-32
2022/10/23 06:03:30;;;;;;;4.93;2.67;;;6.70;99.90;;;;;;4939680;28;20113;-34
2022/10/23 06:05:56;;;;;;;3.28;2.95;;;6.80;99.90;;;;;;4940943;29;20126;-31
2022/10/23 06:08:23;;;;;;;3.90;3.22;;;6.90;99.90;;;;;;4939930;28;20039;-33
2022/10/23 06:10:48;;;;;;;4.18;3.28;;;7.00;99.90;;;;;;4938255;28;20094;-34
2022/10/23 06:13:14;;;;;;;4.97;4.03;;;7.10;99.90;;;;;;4945102;28;20035;-36
2022/10/23 06:15:40;;;;;;;4.65;3.70;;;7.20;99.90;;;;;;4944139;28;21026;-34
2022/10/23 06:18:05;;;;;;;7.32;3.67;;;7.20;99.90;;;;;;4941252;28;20035;-31
2022/10/23 06:20:35;;;;;;;7.35;4.97;;;7.20;99.90;;;;;;4944095;28;20476;-31
2022/10/23 06:23:00;;;;;;;5.97;3.95;;;7.20;99.90;;;;;;4945420;28;20570;-31
2022/10/23 06:25:26;;;;;;;10.65;4.18;;;7.20;99.90;;;;;;4944252;28;20033;-32
2022/10/23 06:27:52;;;;;;;8.57;4.30;;;7.20;99.90;;;;;;4944499;28;20107;-35
2022/10/23 06:30:17;;;;;;;6.70;4.18;;;7.20;99.90;;;;;;4941557;28;20061;-34
2022/10/23 06:32:43;;;;;;;5.60;3.72;;;7.20;99.90;;;;;;4942780;28;20035;-32
2022/10/23 06:35:08;;;;;;;5.88;4.53;;;7.30;99.90;;;;;;4941682;28;20090;-31
2022/10/23 06:37:34;;;;;;;7.07;4.88;;;7.30;99.90;;;;;;4942068;28;20035;-34
2022/10/23 06:40:00;;;;;;;6.65;4.55;;;7.30;99.90;;;;;;4940533;28;20460;-34
2022/10/23 06:42:25;;;;;;;5.15;4.30;;;7.40;99.90;;;;;;4942842;28;20039;-32
2022/10/23 06:44:51;;;;;;;6.15;3.97;;;7.40;99.90;;;;;;4941619;29;20035;-34
2022/10/23 06:47:17;;;;;;;5.07;4.13;;;7.50;99.90;;;;;;4940582;28;20222;-34
2022/10/23 06:49:42;;;;;;;6.93;3.75;;;7.60;99.90;;;;;;4943966;28;20050;-35
2022/10/23 06:52:08;;;;;;;5.00;3.65;;;7.60;99.90;;;;;;4941863;28;20035;-32
2022/10/23 06:54:33;;;;;;;4.95;3.75;;;7.60;99.90;;;;;;4944552;28;20381;-31
2022/10/23 06:56:59;;;;;;;5.20;3.85;;;7.70;99.90;;;;;;4943531;28;20035;-31
2022/10/23 06:59:24;;;;;;;5.93;4.55;;;7.70;99.90;;;;;;4940327;28;20031;-32
2022/10/23 07:01:50;;;;;;;5.57;4.03;;;7.80;99.90;;;;;;4944420;28;20050;-36
2022/10/23 07:04:16;;;;;;;4.18;3.72;;;7.90;99.90;;;;;;4942035;28;20674;-35
2022/10/23 07:06:42;;;;;;;4.78;3.97;;;7.90;99.90;;;;;;4943408;28;20035;-31
2022/10/23 07:09:08;;;;;;;7.80;4.13;;;8.00;99.90;;;;;;4942687;28;20035;-32
2022/10/23 07:11:33;;;;;;;5.18;4.28;;;8.00;99.90;;;;;;4940001;28;20499;-34
2022/10/23 07:13:59;;;;;;;4.93;4.43;;;8.10;99.90;;;;;;4943794;28;20019;-34
2022/10/23 07:16:25;;;;;;;5.00;3.92;;;8.30;99.90;;;;;;4943546;28;20388;-32
2022/10/23 07:18:58;;;;;;;5.13;4.22;;;8.30;99.90;;;;;;4940422;28;20130;-33
2022/10/23 07:21:28;;;;;;;4.85;4.15;;;8.50;99.90;;;;;;4943889;28;20121;-31
2022/10/23 07:23:54;;;;;;;4.63;4.18;;;8.50;99.90;;;;;;4945430;28;20031;-32
2022/10/23 07:26:20;;;;;;;6.40;4.60;;;8.60;99.90;;;;;;4945505;28;20034;-32
2022/10/23 07:28:47;;;;;;;5.18;4.25;;;8.70;99.90;;;;;;4945049;28;20036;-31
2022/10/23 07:31:13;;;;;;;6.28;4.63;;;8.90;99.90;;;;;;4949905;28;20035;-31
2022/10/23 07:33:39;;;;;;;7.63;5.15;;;9.00;99.90;;;;;;4947710;28;20037;-33
2022/10/23 07:36:08;;;;;;;8.48;4.80;;;9.10;99.90;;;;;;4942781;28;20027;-33
2022/10/23 07:38:34;;;;;;;7.47;5.32;;;9.20;99.90;;;;;;4946022;28;20054;-31
2022/10/23 07:41:00;;;;;;;6.38;4.93;;;9.30;99.90;;;;;;4948367;28;20031;-31
2022/10/23 07:43:26;;;;;;;8.10;5.05;;;9.40;99.90;;;;;;4948011;28;20035;-31
2022/10/23 07:45:52;;;;;;;6.38;5.30;;;9.60;99.90;;;;;;4943599;28;20035;-33
2022/10/23 07:48:19;;;;;;;6.07;4.53;;;9.60;99.90;;;;;;4949573;28;20114;-32
2022/10/23 07:50:45;;;;;;;6.05;5.07;;;9.80;99.90;;;;;;4944343;28;20042;-32
2022/10/23 07:53:18;;;;;;;5.25;4.75;;;9.90;99.90;;;;;;4946146;28;20039;-31
2022/10/23 07:55:52;;;;;;;6.05;4.70;;;10.00;99.90;;;;;;4946976;28;20027;-32
2022/10/23 07:58:17;;;;;;;6.05;4.47;;;10.00;99.90;;;;;;4947500;28;20106;-32
2022/10/23 08:00:44;;;;;;;6.28;4.35;;;10.10;99.90;;;;;;4944101;28;20037;-34
2022/10/23 08:03:11;;;;;;;7.28;4.28;;;10.20;99.90;;;;;;4942702;28;21449;-36
2022/10/23 08:05:37;;;;;;;5.43;4.80;;;10.30;99.90;;;;;;4945809;28;20071;-32
2022/10/23 08:08:03;;;;;;;5.65;4.50;;;10.30;99.90;;;;;;4946364;28;20485;-32
2022/10/23 08:10:28;;;;;;;5.03;4.20;;;10.40;99.90;;;;;;4946341;28;20131;-30
2022/10/23 08:12:54;;;;;;;5.57;4.70;;;10.50;99.90;;;;;;4944307;28;20042;-33
2022/10/23 08:15:20;;;;;;;6.00;5.05;;;10.60;99.90;;;;;;4945988;28;20106;-33
2022/10/23 08:17:45;;;;;;;3.90;3.40;;;10.70;99.90;;;;;;4947362;28;20027;-32
2022/10/23 08:20:12;;;;;;;3.58;2.70;;;10.90;99.90;;;;;;4951141;28;20027;-31
2022/10/23 08:22:38;;;;;;;5.05;2.88;;;11.00;99.90;;;;;;4944845;28;20023;-31
2022/10/23 08:25:04;;;;;;;3.10;2.50;;;11.20;99.90;;;;;;4948103;28;20027;-33
2022/10/23 08:27:30;;;;;;;3.65;2.35;;;11.30;99.90;;;;;;4945833;28;20393;-33
2022/10/23 08:29:56;;;;;;;2.20;2.00;;;11.40;99.90;;;;;;4946949;28;20035;-35
2022/10/23 08:32:21;;;;;;;2.20;2.00;;;11.50;99.90;;;;;;4943572;28;20039;-32
2022/10/23 08:34:47;;;;;;;2.35;1.90;;;11.50;99.90;;;;;;4945045;28;20468;-31
2022/10/23 08:37:12;;;;;;;2.25;2.05;;;11.70;99.90;;;;;;4946792;29;20086;-31
2022/10/23 08:39:38;;;;;;;2.42;2.22;;;11.70;99.90;;;;;;4945337;28;20059;-30
2022/10/23 08:42:04;;;;;;;2.17;1.92;;;11.90;99.90;;;;;;4945243;28;20031;-31
2022/10/23 08:44:32;;;;;;;2.22;1.80;;;11.90;99.90;;;;;;4943803;28;20492;-34
2022/10/23 08:47:03;;;;;;;1.50;1.40;;;12.10;99.90;;;;;;4946262;28;20031;-33
2022/10/23 08:49:59;;;;;;;1.42;1.33;;;12.10;99.90;;;;;;4944193;28;20083;-33
2022/10/23 08:52:45;;;;;;;3.00;2.00;;;12.20;99.90;;;;;;4944579;28;20031;-36
2022/10/23 08:55:16;;;;;;;2.72;2.28;;;12.30;99.90;;;;;;4943644;28;20031;-31
2022/10/23 08:57:59;;;;;;;2.40;2.20;;;12.40;99.90;;;;;;4944697;28;20362;-31
2022/10/23 09:00:25;;;;;;;2.33;1.85;;;12.40;99.90;;;;;;4946861;28;20058;-30
2022/10/23 09:02:52;;;;;;;1.90;1.63;;;12.50;99.90;;;;;;4942847;28;20177;-31
2022/10/23 09:05:20;;;;;;;2.97;2.67;;;12.60;99.90;;;;;;4943927;28;20348;-31
2022/10/23 09:07:51;;;;;;;2.00;1.80;;;12.60;99.90;;;;;;4946545;28;20293;-31
2022/10/23 09:10:33;;;;;;;3.22;1.80;;;12.70;99.90;;;;;;4946124;28;20830;-33
2022/10/23 09:13:19;;;;;;;1.63;1.52;;;12.80;99.90;;;;;;4944693;28;20031;-34
2022/10/23 09:15:49;;;;;;;2.92;1.58;;;12.90;99.90;;;;;;4941197;28;20047;-31
2022/10/23 09:18:16;;;;;;;2.20;2.00;;;12.90;99.90;;;;;;4943454;29;20031;-31
2022/10/23 09:20:45;;;;;;;2.28;2.00;;;13.00;99.90;;;;;;4945007;28;20046;-31
2022/10/23 09:23:20;;;;;;;2.13;1.98;;;13.10;99.90;;;;;;4945944;28;20035;-31
2022/10/23 09:25:47;;;;;;;3.47;2.00;;;13.20;99.90;;;;;;4946534;28;20118;-34
2022/10/23 09:28:22;;;;;;;2.33;2.05;;;13.40;99.90;;;;;;4942650;29;20123;-35
2022/10/23 09:30:48;;;;;;;1.80;1.70;;;13.50;99.90;;;;;;4943448;28;20035;-32
2022/10/23 09:33:16;;;;;;;1.73;1.52;;;13.50;99.90;;;;;;4942745;29;20062;-31
2022/10/23 09:35:52;;;;;;;;;;;13.70;99.90;;;;;;4944553;28;20840;-34
2022/10/23 09:38:29;;;;;;;1.55;1.45;;;13.90;99.90;;;;;;4945773;29;19945;-34
2022/10/23 09:41:00;;;;;;;2.30;1.47;;;14.20;99.90;;;;;;4946828;28;20048;-32
2022/10/23 09:43:26;;;;;;;1.38;1.30;;;14.50;99.90;;;;;;4944523;29;20037;-32
2022/10/23 09:46:01;;;;;;;1.70;1.30;;;14.60;99.90;;;;;;4944564;28;20054;-31
2022/10/23 09:48:28;;;;;;;1.10;1.10;;;14.60;99.90;;;;;;4960323;28;20055;-34
2022/10/23 09:50:56;;;;;;;2.13;1.33;;;14.60;99.90;;;;;;4944050;28;20019;-31
2022/10/23 09:53:25;;;;;;;;;;;14.80;99.90;;;;;;4943222;28;20031;-31
2022/10/23 09:55:58;;;;;;;1.33;1.23;;;14.90;99.90;;;;;;4945392;28;19921;-31
2022/10/23 09:58:32;;;;;;;1.10;1.10;;;15.10;99.90;;;;;;4941473;28;20035;-33
2022/10/23 10:00:58;;;;;;;1.75;1.25;;;15.30;99.90;;;;;;4942387;28;20032;-31
2022/10/23 10:03:24;;;;;;;1.30;1.20;;;15.40;99.90;;;;;;4940418;28;20028;-36
2022/10/23 10:06:03;;;;;;;1.23;1.10;;;15.50;99.90;;;;;;4942664;28;20365;-31
2022/10/23 10:08:38;;;;;;;1.95;1.17;;;15.50;99.90;;;;;;4945316;28;20082;-31
2022/10/23 10:11:15;;;;;;;4.43;1.30;;;15.60;99.90;;;;;;4946208;28;20031;-31
2022/10/23 10:14:01;;;;;;;1.30;1.20;;;15.70;99.90;;;;;;4944116;29;20027;-32
2022/10/23 10:16:38;;;;;;;1.75;1.20;;;15.70;99.90;;;;;;4947184;28;20030;-33
2022/10/23 10:19:24;;;;;;;1.50;1.10;;;15.70;99.90;;;;;;4943508;28;20448;-32
2022/10/23 10:22:22;;;;;;;2.53;1.67;;;15.90;99.90;;;;;;4934406;28;20129;-32
2022/10/23 10:24:54;;;;;;;1.33;1.20;;;16.00;99.90;;;;;;4942171;28;20050;-31
2022/10/23 10:27:36;;;;;;;2.15;1.10;;;16.10;99.90;;;;;;4945970;28;20041;-31
2022/10/23 10:30:23;;;;;;;4.57;1.08;;;16.10;99.90;;;;;;4943671;28;20059;-34
2022/10/23 10:33:23;;;;;;;2.83;1.30;;;16.20;99.90;;;;;;4943740;28;20071;-32
2022/10/23 10:36:04;;;;;;;1.23;1.10;;;16.20;99.90;;;;;;4916468;28;20047;-31
2022/10/23 10:38:52;;;;;;;1.20;1.10;;;16.20;99.90;;;;;;4944691;28;20031;-34
2022/10/23 10:41:17;;;;;;;;;;;16.20;99.90;;;;;;4943258;28;20032;-37
2022/10/23 10:43:53;;;;;;;2.72;1.13;;;16.20;99.90;;;;;;4944215;28;19914;-34
2022/10/23 10:46:35;;;;;;;1.25;1.15;;;16.20;99.90;;;;;;4946411;28;20062;-32
2022/10/23 10:49:11;;;;;;;1.50;1.10;;;16.20;99.90;;;;;;4945008;28;20450;-32
2022/10/23 10:51:53;;;;;;;1.17;1.02;;;16.30;99.90;;;;;;4946792;28;20584;-33
2022/10/23 10:54:42;;;;;;;3.30;1.23;;;16.20;99.90;;;;;;4942148;29;20039;-33
2022/10/23 10:57:28;;;;;;;2.28;1.00;;;16.30;99.90;;;;;;4945923;28;20428;-34
2022/10/23 10:59:56;;;;;;;2.50;0.93;;;16.30;99.90;;;;;;4948676;28;20094;-33
2022/10/23 11:02:24;;;;;;;;;;;16.40;99.90;;;;;;4951154;28;20039;-33
2022/10/23 11:05:15;;;;;;;1.05;0.98;;;16.40;99.90;;;;;;4947276;28;19918;-31
2022/10/23 11:07:54;;;;;;;1.08;1.02;;;16.50;99.90;;;;;;4947297;28;20032;-33
2022/10/23 11:10:20;;;;;;;1.73;0.93;;;16.60;99.90;;;;;;4952305;29;20106;-33
2022/10/23 11:12:47;;;;;;;1.13;1.13;;;16.60;99.90;;;;;;4954824;28;20492;-31
2022/10/23 11:15:23;;;;;;;0.93;0.93;;;16.70;99.90;;;;;;4952729;28;20035;-32
2022/10/23 11:17:57;;;;;;;1.23;1.05;;;16.70;99.90;;;;;;4949549;28;20087;-35
2022/10/23 11:20:58;;;;;;;1.10;0.98;;;16.90;99.90;;;;;;4949136;28;20028;-32
2022/10/23 11:23:45;;;;;;;1.17;1.08;;;16.90;99.90;;;;;;4934143;29;20035;-33
2022/10/23 11:26:32;;;;;;;1.90;1.20;;;16.90;99.90;;;;;;4946807;28;20043;-33
2022/10/23 11:29:10;;;;;;;1.30;1.20;;;17.00;99.90;;;;;;4947574;28;20098;-34
2022/10/23 11:31:53;;;;;;;2.90;1.15;;;17.10;99.90;;;;;;4944938;28;20039;-31
2022/10/23 11:34:57;;;;;;;1.30;1.20;;;17.00;99.90;;;;;;4950880;28;20034;-35
2022/10/23 11:37:23;;;;;;;1.20;1.10;;;17.00;99.90;;;;;;4944393;28;20103;-32
2022/10/23 11:40:07;;;;;;;1.08;1.08;;;17.10;99.90;;;;;;4948830;28;20528;-33
2022/10/23 11:42:46;;;;;;;2.00;1.38;;;17.00;99.90;;;;;;4949186;28;20031;-32
2022/10/23 11:45:30;;;;;;;1.45;1.35;;;17.20;99.90;;;;;;4946676;28;20111;-33
2022/10/23 11:48:01;;;;;;;2.83;1.60;;;17.30;99.90;;;;;;4948166;28;20118;-32
2022/10/23 11:50:42;;;;;;;2.35;1.42;;;17.50;99.90;;;;;;4949040;28;20465;-33
2022/10/23 11:53:29;;;;;;;2.03;1.30;;;17.40;99.90;;;;;;4946203;28;20079;-37
2022/10/23 11:55:57;;;;;;;1.45;1.20;;;17.50;99.90;;;;;;4947517;28;20038;-31
2022/10/23 11:58:30;;;;;;;1.55;1.33;;;17.60;99.90;;;;;;4948290;28;20031;-32
2022/10/23 12:01:24;;;;;;;1.30;1.20;;;17.50;99.90;;;;;;4949196;28;20043;-32
2022/10/23 12:04:18;;;;;;;1.73;1.00;;;17.50;99.90;;;;;;4943560;28;20133;-32
2022/10/23 12:06:48;;;;;;;1.33;1.23;;;17.60;99.90;;;;;;4939866;29;20190;-35
2022/10/23 12:09:26;;;;;;;1.58;1.13;;;17.60;99.90;;;;;;4946086;28;20462;-35
2022/10/23 12:12:01;;;;;;;2.88;1.38;;;17.60;99.90;;;;;;4946914;28;20038;-32
2022/10/23 12:14:36;;;;;;;1.30;1.10;;;17.60;99.90;;;;;;4943635;28;20035;-36
2022/10/23 12:17:17;;;;;;;2.00;1.02;;;17.60;99.90;;;;;;4942656;28;20489;-36
2022/10/23 12:19:47;;;;;;;1.45;1.20;;;17.70;99.90;;;;;;4943880;28;20015;-32
2022/10/23 12:22:13;;;;;;;4.50;1.65;;;17.70;99.90;;;;;;4942294;28;20031;-38
2022/10/23 12:24:59;;;;;;;2.13;1.40;;;17.80;99.90;;;;;;4941720;28;20497;-32
2022/10/23 12:27:28;;;;;;;1.77;1.30;;;17.80;99.90;;;;;;4947631;28;20400;-32
2022/10/23 12:30:19;;;;;;;1.50;1.40;;;17.90;99.90;;;;;;4944611;28;20527;-31
2022/10/23 12:33:11;;;;;;;1.77;1.17;;;17.90;99.90;;;;;;4946938;28;20126;-33
2022/10/23 12:36:15;;;;;;;1.60;1.33;;;17.80;99.90;;;;;;4945384;28;20047;-34
2022/10/23 12:38:46;;;;;;;2.95;1.38;;;17.90;99.90;;;;;;4962919;28;20031;-32
2022/10/23 12:41:37;;;;;;;1.40;1.30;;;17.90;99.90;;;;;;4949400;28;20110;-31
2022/10/23 12:44:04;;;;;;;2.38;1.25;;;18.00;99.90;;;;;;4947109;28;20431;-33
2022/10/23 12:46:38;;;;;;;3.47;1.58;;;18.10;99.90;;;;;;4948226;28;20031;-31
2022/10/23 12:49:32;;;;;;;1.85;1.13;;;18.10;99.90;;;;;;4945548;28;20050;-32
2022/10/23 12:52:04;;;;;;;3.47;1.00;;;18.20;99.90;;;;;;4945430;29;20039;-34
2022/10/23 12:54:32;;;;;;;2.45;1.50;;;18.30;99.90;;;;;;4949773;28;20035;-31
2022/10/23 12:56:58;;;;;;;1.50;1.38;;;18.30;99.90;;;;;;4947035;28;20028;-35
2022/10/23 12:59:29;;;;;;;1.33;1.20;;;18.30;99.90;;;;;;4949058;28;20039;-30
2022/10/23 13:01:55;;;;;;;3.08;1.20;;;18.30;99.90;;;;;;4945795;28;20027;-33
2022/10/23 13:04:33;;;;;;;1.40;1.30;;;18.30;99.90;;;;;;4945603;28;21793;-31
2022/10/23 13:07:01;;;;;;;1.70;1.17;;;18.30;99.90;;;;;;4946948;28;20041;-30
2022/10/23 13:09:32;;;;;;;3.25;1.40;;;18.30;99.90;;;;;;4951235;28;20039;-33
2022/10/23 13:12:00;;;;;;;1.85;1.20;;;18.30;99.90;;;;;;4946405;29;20417;-31
2022/10/23 13:14:36;;;;;;;2.22;1.30;;;18.30;99.90;;;;;;4947238;28;20031;-31